Forside
METAR-TAF:

METAR-TAF

Lufthavne :

Jakutsk, Rusland

Breddekreds: 62-01N, længdekreds: 129-43E, højde: 103 m

Aktuelle vejr

Denne rapport blev lavet for 18 minutter siden, kl. 01:00 UTC
Vind 2 kt fra sydsydøst
Temperatur -29°C
Fugtighed 75%
Tryk 1019 hPa
Sigt 10 km eller mere
ingen skyer under 1500m og ingen cumulonimbus

METAR: UEEE 210100Z 15001MPS CAVOK M29/M32 Q1019 R23L/490150 NOSIG RMK QFE755

Tid: 10:18 (01:18 UTC)

Vejrudsigter

Denne rapport blev lavet for 2 timer og 18 minutter siden, kl. 23:00 UTC
Foreløbig gælder fra 21 på 00 UTC til 22 på 06 UTC
Vind 2 kt fra varierende retninger
Sigt 10 km eller mere
ingen skyer under 1500m og ingen cumulonimbus
Midlertidig
fra 21 på 00 UTC til 21 på 03 UTC
Sigt: 3200 m
dis

TAF: UEEE 202300Z 2100/2206 VRB01MPS CAVOK TEMPO 2100/2103 3200 BR NSC

Vejrobservationer og prognoser fra mere end 4000 lufthavne (METAR og TAF).

De gule og røde prikker repræsenterer de meteorologiske stationer.

Flyt musen over at se navnet på stationen.

Så klik over at se vejr observationer og prognoser.

At skifte det kort: Klik på de grønne knapper med et sort kors for at zoome ind; på den grønne knap med en bindestreg for at zoome ud; eller på de grønne pile for tilstødende kort.


METAR-TAF: